Astatula, Florida
Current Conditions -  °F | °C
As of 5:53 AM on Monday 20 Oct 2014 (Local Time) from KLEE Reporting Station
Clear Clear  
Wind Chill: 18°   Ceiling: Unl
Heat Index: 18°   Visibility: 10mi
Dew Point: 17°   Wind: 5mph
Humidity: 93%   Direction: 30°NNE
Pressure: 30.04"   Gusts: NA
Location:  28.71°N, 81.73°W
Report Text: KLEE 200953Z AUTO 03004KT 10SM CLR 18/17 A3004 RMK AO2 SLP169 T01830172
Loading
Personal Weather Stations






























Interactive Weather Map
Tropical Storm Tracking
New forecast layout! Learn more

10-Day Weather Forecast

Advertisements
Track Severe Weather on mobile